ADDS METAR Data INFO
IDs: Format: Raw Decoded Include TAF

Data at: 1610 UTC 14 Aug 2018

KGEV 141555Z AUTO 33005KT 10SM SCT030 22/15 A3016 RMK AO2 T02240147
KGEV 141535Z AUTO 34005KT 10SM BKN028 22/15 A3016 RMK AO2 T02160151
KGEV 141515Z AUTO 31004KT 10SM BKN028 21/15 A3016 RMK AO2 T02090150
KGEV 141455Z AUTO 32005KT 10SM BKN028 21/15 A3017 RMK AO2 T02070146
KGEV 141435Z AUTO 33005KT 10SM SCT025 21/15 A3016 RMK AO2 T02130153
KGEV 141415Z AUTO 30004KT 10SM SCT025 21/15 A3016 RMK AO2 T02050148
KGEV 141355Z AUTO 28006KT 10SM CLR 21/15 A3015 RMK AO2 T02050149
KGEV 141335Z AUTO 27007KT 10SM SCT003 20/15 A3015 RMK AO2 T02010147
KGEV 141315Z AUTO 28006KT 10SM CLR 20/14 A3016 RMK AO2 T02000144
KGEV 141255Z AUTO 29006KT 10SM CLR 19/15 A3015 RMK AO2 T01940148
KGEV 141235Z AUTO 00000KT 10SM CLR 17/15 A3015 RMK AO2 T01740151
KGEV 141215Z AUTO 12003KT 10SM CLR 17/14 A3014 RMK AO2 T01670144
KGEV 141155Z AUTO 32003KT 10SM CLR 19/14 A3013 RMK AO2 T01870141 10187 20147
KGEV 141135Z AUTO 29004KT 10SM CLR 18/15 A3013 RMK AO2 T01750145
KGEV 141115Z AUTO 00000KT 10SM CLR 15/14 A3013 RMK AO2 T01510139
KGEV 141055Z AUTO 00000KT 10SM CLR 16/14 A3013 RMK AO2 T01550138
KGEV 141035Z AUTO 00000KT 10SM CLR 15/14 A3012 RMK AO2 T01470137
KGEV 141015Z AUTO 00000KT 10SM CLR 16/14 A3011 RMK AO2 T01610136
KGEV 140955Z AUTO 28004KT 10SM CLR 16/14 A3011 RMK AO2 T01610140
KGEV 140935Z AUTO 28003KT 10SM CLR 16/14 A3011 RMK AO2 T01610138
KGEV 140915Z AUTO 29004KT 10SM CLR 17/14 A3011 RMK AO2 T01680138
KGEV 140855Z AUTO 00000KT 10SM CLR 16/14 A3010 RMK AO2 T01600139
KGEV 140835Z AUTO 00000KT 10SM CLR 16/14 A3010 RMK AO2 T01600139
KGEV 140815Z AUTO 33004KT 10SM CLR 17/14 A3010 RMK AO2 T01710137
KGEV 140755Z AUTO 32004KT 10SM CLR 17/14 A3011 RMK AO2 T01730138
KGEV 140735Z AUTO 32003KT 10SM CLR 18/14 A3012 RMK AO2 T01790136
KGEV 140715Z AUTO 29003KT 10SM SCT085 18/14 A3012 RMK AO2 T01830136
KGEV 140655Z AUTO 31004KT 10SM SCT085 18/14 A3013 RMK AO2 T01770138
KGEV 140635Z AUTO 00000KT 10SM CLR 18/14 A3013 RMK AO2 T01770136
KGEV 140615Z AUTO 00000KT 10SM SCT095 17/14 A3013 RMK AO2 T01740137
KGEV 140555Z AUTO 00000KT 10SM SCT080 SCT095 18/14 A3014 RMK AO2 T01840135 10214 20175 402490138
KGEV 140535Z AUTO 28005KT 10SM BKN080 BKN095 18/14 A3014 RMK AO2 T01830141
KGEV 140515Z AUTO 27004KT 10SM BKN080 BKN095 18/14 A3015 RMK AO2 T01840142
KGEV 140455Z AUTO 00000KT 10SM BKN090 19/13 A3015 RMK AO2 T01930130
KGEV 140435Z AUTO 00000KT 10SM BKN100 20/13 A3015 RMK AO2 T01950134
KGEV 140415Z AUTO 00000KT 10SM SCT090 19/14 A3015 RMK AO2 T01920138
KGEV 140355Z AUTO 00000KT 10SM SCT050 OVC100 19/14 A3015 RMK AO2 T01900142
KGEV 140335Z AUTO 30004KT 10SM SCT047 BKN055 OVC090 19/14 A3015 RMK AO2 T01910144
KGEV 140315Z AUTO 27004KT 10SM BKN045 BKN060 OVC110 19/15 A3015 RMK AO2 T01910148
KGEV 140255Z AUTO 00000KT 10SM BKN110 19/16 A3015 RMK AO2 T01850156
KGEV 140235Z AUTO 00000KT 10SM OVC110 18/16 A3015 RMK AO2 T01810158
KGEV 140215Z AUTO 00000KT 10SM OVC110 20/15 A3015 RMK AO2 T01980148
KGEV 140155Z AUTO 31003KT 10SM OVC110 20/15 A3014 RMK AO2 T01980151
KGEV 140135Z AUTO 28004KT 10SM BKN110 20/15 A3014 RMK AO2 T02030150
KGEV 140115Z AUTO 29003KT 10SM SCT033 SCT110 20/15 A3013 RMK AO2 T02020149
KGEV 140055Z AUTO 30003KT 10SM BKN033 OVC100 20/15 A3012 RMK AO2 T02010150
KGEV 140035Z AUTO 29006KT 10SM SCT033 SCT039 OVC100 21/15 A3013 RMK AO2 T02120146
KGEV 140015Z AUTO 29004KT 10SM BKN110 21/14 A3012 RMK AO2 T02120143
KGEV 132355Z AUTO 30003KT 10SM SCT110 21/15 A3011 RMK AO2 T02100145 10249 20210
KGEV 132335Z AUTO 31004KT 10SM SCT036 BKN042 BKN048 22/14 A3011 RMK AO2 T02160142
KGEV 132315Z AUTO 31003KT 10SM BKN040 BKN047 22/14 A3011 RMK AO2 T02170140
KGEV 132255Z AUTO 29006KT 10SM SCT043 BKN050 BKN095 22/15 A3010 RMK AO2 T02230149
KGEV 132235Z AUTO 33004KT 10SM SCT095 22/15 A3010 RMK AO2 T02220145
KGEV 132215Z AUTO 30009KT 10SM SCT095 22/15 A3010 RMK AO2 T02210145
KGEV 132155Z AUTO 29009KT 10SM BKN095 23/15 A3010 RMK AO2 T02280150
KGEV 132135Z AUTO 29008KT 10SM CLR 23/15 A3010 RMK AO2 T02330145
KGEV 132115Z AUTO 28010KT 10SM CLR 24/14 A3010 RMK AO2 T02370142
KGEV 132055Z AUTO 28010KT 10SM CLR 24/14 A3010 RMK AO2 T02420135
KGEV 132035Z AUTO 29009KT 10SM SCT046 SCT055 24/13 A3010 RMK AO2 T02410132
KGEV 132015Z AUTO 25003KT 10SM SCT046 25/13 A3011 RMK AO2 T02490132
KGEV 131955Z AUTO 24004KT 10SM BKN048 BKN070 OVC100 25/13 A3012 RMK AO2 T02450132
KGEV 131935Z AUTO 25004KT 10SM SCT048 SCT100 24/13 A3012 RMK AO2 T02410132
KGEV 131915Z AUTO 25005KT 10SM SCT048 SCT060 24/12 A3013 RMK AO2 T02420121
KGEV 131855Z AUTO 00000KT 10SM SCT044 SCT050 SCT060 24/15 A3013 RMK AO2 T02350146
KGEV 131835Z AUTO 04003KT 10SM SCT044 BKN060 BKN080 23/15 A3014 RMK AO2 T02250153
KGEV 131815Z AUTO 00000KT 10SM SCT060 SCT070 BKN110 23/14 A3015 RMK AO2 T02250143
KGEV 131755Z AUTO 02003KT 10SM SCT060 BKN070 22/15 A3016 RMK AO2 T02240151 10230 20152
KGEV 131735Z AUTO 05003KT 10SM SCT039 SCT044 BKN070 23/15 A3016 RMK AO2 T02270150
KGEV 131715Z AUTO 02003KT 10SM SCT039 SCT047 BKN050 22/15 A3017 RMK AO2 T02190153
KGEV 131655Z AUTO 07005KT 10SM SCT033 BKN039 23/15 A3017 RMK AO2 T02250152
KGEV 131635Z AUTO 00000KT 10SM OVC033 22/15 A3017 RMK AO2 T02170147
KGEV 131615Z AUTO 29004KT 10SM BKN029 BKN038 22/15 A3017 RMK AO2 T02160147
KGEV 131555Z AUTO 02005KT 10SM BKN027 BKN035 22/16 A3017 RMK AO2 T02210162
KGEV 131535Z AUTO 34003KT 10SM SCT029 BKN035 21/16 A3018 RMK AO2 T02100156
KGEV 131515Z AUTO 35003KT 10SM BKN029 BKN034 21/16 A3018 RMK AO2 T02120156
KGEV 131455Z AUTO 35006KT 10SM SCT030 21/16 A3018 RMK AO2 T02090156
KGEV 131435Z AUTO 01005KT 10SM CLR 21/16 A3018 RMK AO2 T02060160
KGEV 131415Z AUTO 36004KT 10SM CLR 20/16 A3017 RMK AO2 T02040162
KGEV 131355Z AUTO 00000KT 10SM CLR 19/16 A3017 RMK AO2 T01930160
KGEV 131335Z AUTO 03003KT 10SM CLR 19/16 A3016 RMK AO2 T01860157
KGEV 131315Z AUTO 35004KT 10SM CLR 18/16 A3016 RMK AO2 T01810156
KGEV 131255Z AUTO 35003KT 10SM CLR 17/16 A3016 RMK AO2 T01700158
KGEV 131235Z AUTO 00000KT 10SM CLR 17/16 A3016 RMK AO2 T01660158
KGEV 131215Z AUTO 00000KT 10SM CLR 16/15 A3015 RMK AO2 T01560150
KGEV 131155Z AUTO 34003KT 10SM CLR 15/15 A3015 RMK AO2 70034 T01520148 10162 20138
KGEV 131135Z AUTO 32004KT 7SM CLR 15/14 A3015 RMK AO2 T01450142
KGEV 131115Z AUTO 31003KT 10SM CLR 14/14 A3014 RMK AO2 T01440142
KGEV 131055Z AUTO 00000KT 7SM CLR 14/14 A3015 RMK AO2 T01410140
KGEV 131035Z AUTO 00000KT 7SM CLR 14/14 A3015 RMK AO2 T01410141
KGEV 131015Z AUTO 00000KT 3SM BR SCT003 14/14 A3015 RMK AO2 T01440143
KGEV 130955Z AUTO 00000KT 2SM BR BKN003 14/14 A3015 RMK AO2 VIS 3/4V5 T01410141
KGEV 130935Z AUTO 32003KT 7SM SCT001 14/14 A3015 RMK AO2 T01420141
KGEV 130915Z AUTO 00000KT 1/2SM FG OVC001 14/14 A3015 RMK AO2 T01410141
KGEV 130855Z AUTO 00000KT 1/4SM FG OVC003 14/14 A3015 RMK AO2 T01410140
KGEV 130835Z AUTO 00000KT 3/4SM BR OVC003 15/15 A3015 RMK AO2 T01500150
KGEV 130815Z AUTO 00000KT 3SM BR SCT003 15/15 A3015 RMK AO2 T01500148
KGEV 130755Z AUTO 00000KT 1/4SM FG OVC003 15/14 A3015 RMK AO2 T01450144
KGEV 130735Z AUTO 00000KT 1/4SM FG OVC003 15/15 A3015 RMK AO2 T01500148
KGEV 130715Z AUTO 00000KT 3SM BR SCT004 16/15 A3015 RMK AO2 T01550153
KGEV 130655Z AUTO 00000KT 4SM BR SCT003 16/16 A3015 RMK AO2 T01570156
KGEV 130635Z AUTO 00000KT 5SM BR SCT001 16/16 A3015 RMK AO2 T01610160
KGEV 130615Z AUTO 00000KT M1/4SM FG OVC001 16/16 A3015 RMK AO2 T01590157
KGEV 130555Z AUTO 00000KT 1/4SM FG OVC001 16/16 A3015 RMK AO2 T01580156 10206 20157 402390157
KGEV 130535Z AUTO 00000KT 7SM CLR 17/16 A3017 RMK AO2 T01650163
KGEV 130515Z AUTO 00000KT 5SM BR SCT005 16/16 A3017 RMK AO2 T01620160
KGEV 130455Z AUTO 00000KT 7SM SCT002 SCT090 17/16 A3018 RMK AO2 T01650161
KGEV 130435Z AUTO 00000KT 1 3/4SM BR SCT002 OVC100 16/16 A3018 RMK AO2 VIS 1V5 T01640161
KGEV 130415Z AUTO 00000KT 10SM OVC100 18/16 A3019 RMK AO2 T01750164